Etusivu
METAR-TAF:

METAR-TAF

Lentoasemat :

Bordj Badji Mokhtar, Algeria

Leveyspiiri: 21-22-30N, Pituuspiiri: 000-55-26E, korkeus merenpinnasta: 396 m

Tämänhetkinen sää

Tämä raportti tehtiin 12 tuntia ja 11 minuuttia sitten, kello 18.00 UTC
Tuuli 5 kn koillisesta
Lämpötila 28°C
Ilmanpaine 1014 hPa
Näkyvyys 10 km tai enemmän
ei pilviä alle 1500 m:ssä eikä cumulonimbus-pilviä

METAR: DATM 261800Z 04005KT CAVOK 28/// Q1014

Aika: 07:11 (06:11 UTC)

Sääennuste

Tämä raportti tehtiin 13 tuntia ja 11 minuuttia sitten, kello 17.00 UTC
Ennuste voimassa 26. päivästä klo 18 UTC - 27. päivään klo 03 UTC
Tuuli 8 kn pohjoisesta/koillisesta
Näkyvyys 10 km tai enemmän
ei pilviä alle 1500 m:ssä eikä cumulonimbus-pilviä

TAF: DATM 261700Z 2618/2703 02008KT CAVOK

Säähavainnot ja -ennusteet yli 4000 lentoasemalta (METAR- ja TAF-raportit).

Käytössä olevat sääasemat on merkitty karttaan keltaisilla ja punaisilla pisteillä.

Aseta hiiri pisteen päälle nähdäksesi sääaseman nimen.

Klikkaa sitten nähdäksesi säähavainnot ja -ennusteet.

Kartan vaihtaminen: klikkaa mustalla rastilla varustettuja vihreitä pisteitä, niin voit zoomata sisään; viivalla varustettua vihreää pistettä, niin voit zoomata ulos tai vihreitä nuolia, niin pääset viereisille kartoille.


METAR-TAF: